createdAt,value
2023-03-30T00:01:04.718Z,96075.72
2023-03-30T00:03:33.322Z,96090.84
2023-03-30T00:06:05.329Z,96083.41
2023-03-30T00:08:33.577Z,96074.53
2023-03-30T00:11:02.158Z,96066.50
2023-03-30T00:13:31.801Z,96072.06
2023-03-30T00:15:59.393Z,96067.13
2023-03-30T00:18:27.382Z,96064.00
2023-03-30T00:20:54.877Z,96058.41
2023-03-30T00:23:22.426Z,96060.13
2023-03-30T00:25:49.998Z,96047.59
2023-03-30T00:28:17.521Z,96054.78
2023-03-30T00:30:47.621Z,96046.25
2023-03-30T00:33:15.678Z,96046.41
2023-03-30T00:35:43.182Z,96043.44
2023-03-30T00:38:10.687Z,96036.69
2023-03-30T00:40:38.367Z,96030.19
2023-03-30T00:43:07.634Z,96033.19
2023-03-30T00:45:35.743Z,96030.91
2023-03-30T00:48:08.263Z,96023.00
2023-03-30T00:50:40.553Z,96031.97
2023-03-30T00:53:16.173Z,96033.09
2023-03-30T00:55:46.050Z,96029.09
2023-03-30T00:58:15.696Z,96029.06
2023-03-30T01:00:47.063Z,96023.75
2023-03-30T01:03:21.309Z,96020.91
2023-03-30T01:05:50.028Z,96014.78
2023-03-30T01:08:18.285Z,96011.94
2023-03-30T01:10:45.933Z,96009.66
2023-03-30T01:13:14.467Z,96008.97
2023-03-30T01:15:53.365Z,95999.16
2023-03-30T01:18:33.166Z,95996.28
2023-03-30T01:21:55.623Z,95994.09
2023-03-30T01:24:53.213Z,95999.22
2023-03-30T01:27:54.932Z,95991.06
2023-03-30T01:30:36.210Z,95985.19
2023-03-30T01:33:23.398Z,95990.81
2023-03-30T01:36:31.764Z,95985.19
2023-03-30T01:39:19.083Z,95982.97
2023-03-30T01:41:55.849Z,95978.88
2023-03-30T01:44:33.299Z,95972.25
2023-03-30T01:47:08.586Z,95973.84
2023-03-30T01:49:41.708Z,95977.41
2023-03-30T01:52:16.133Z,95974.19
2023-03-30T01:54:49.049Z,95971.88
2023-03-30T01:57:19.546Z,95980.22
2023-03-30T01:59:55.125Z,95983.69
2023-03-30T02:02:25.378Z,95986.53
2023-03-30T02:04:54.620Z,95977.19
2023-03-30T02:07:26.040Z,95972.50
2023-03-30T02:09:59.164Z,95966.22
2023-03-30T02:12:30.224Z,95962.72
2023-03-30T02:15:02.269Z,95965.94
2023-03-30T02:17:31.085Z,95972.16
2023-03-30T02:20:00.183Z,95964.38
2023-03-30T02:22:29.435Z,95964.38
2023-03-30T02:24:58.876Z,95955.66
2023-03-30T02:27:27.636Z,95955.97
2023-03-30T02:29:56.338Z,95954.59
2023-03-30T02:32:27.080Z,95950.25
2023-03-30T02:35:22.303Z,95958.84
2023-03-30T02:38:19.622Z,95939.09
2023-03-30T02:40:57.937Z,95944.41
2023-03-30T02:43:38.764Z,95923.50
2023-03-30T02:46:20.480Z,95906.94
2023-03-30T02:49:01.835Z,95890.97
2023-03-30T02:51:40.868Z,95878.84
2023-03-30T02:54:19.505Z,95844.88
2023-03-30T02:56:55.190Z,95865.28
2023-03-30T02:59:28.577Z,95886.75
2023-03-30T03:01:59.861Z,95873.16
2023-03-30T03:04:29.962Z,95866.91
2023-03-30T03:06:57.538Z,95879.41
2023-03-30T03:09:25.973Z,95882.41
2023-03-30T03:11:54.924Z,95886.38
2023-03-30T03:14:22.551Z,95894.75
2023-03-30T03:16:50.051Z,95889.13
2023-03-30T03:19:17.559Z,95893.19
2023-03-30T03:21:45.027Z,95890.19
2023-03-30T03:24:13.652Z,95874.97
2023-03-30T03:26:41.134Z,95874.31
2023-03-30T03:29:10.133Z,95875.63
2023-03-30T03:31:38.007Z,95871.66
2023-03-30T03:34:05.680Z,95867.59
2023-03-30T03:36:33.432Z,95871.53
2023-03-30T03:39:00.994Z,95874.72
2023-03-30T03:41:28.474Z,95859.81
2023-03-30T03:43:56.975Z,95859.91
2023-03-30T03:46:25.884Z,95873.28
2023-03-30T03:48:53.398Z,95874.44
2023-03-30T03:51:21.137Z,95886.31
2023-03-30T03:53:49.667Z,95884.34
2023-03-30T03:56:17.151Z,95887.75
2023-03-30T03:58:44.642Z,95892.00
2023-03-30T04:01:14.352Z,95898.16
2023-03-30T04:03:43.668Z,95904.28
2023-03-30T04:06:11.238Z,95924.50
2023-03-30T04:08:38.798Z,95940.94
2023-03-30T04:11:07.802Z,95938.69
2023-03-30T04:13:35.507Z,95945.47
2023-03-30T04:16:03.107Z,95918.81
2023-03-30T04:18:33.286Z,95917.53
2023-03-30T04:21:05.192Z,95914.97
2023-03-30T04:23:34.130Z,95911.56
2023-03-30T04:26:02.648Z,95917.03
2023-03-30T04:28:31.691Z,95916.19
2023-03-30T04:31:00.216Z,95910.66
2023-03-30T04:33:28.041Z,95894.25
2023-03-30T04:35:55.601Z,95886.38
2023-03-30T04:38:24.406Z,95892.84
2023-03-30T04:40:53.052Z,95896.97
2023-03-30T04:43:21.546Z,95893.81
2023-03-30T04:45:50.701Z,95902.16
2023-03-30T04:48:19.465Z,95896.66
2023-03-30T04:50:49.234Z,95898.03
2023-03-30T04:53:18.653Z,95896.72
2023-03-30T04:55:51.604Z,95905.22
2023-03-30T04:58:19.407Z,95896.16
2023-03-30T05:00:47.357Z,95899.13
2023-03-30T05:03:14.947Z,95899.47
2023-03-30T05:05:43.010Z,95905.44
2023-03-30T05:08:10.494Z,95899.66
2023-03-30T05:10:37.965Z,95898.50
2023-03-30T05:13:06.828Z,95891.78
2023-03-30T05:15:34.287Z,95894.66
2023-03-30T05:18:01.792Z,95896.22
2023-03-30T05:20:29.315Z,95897.59
2023-03-30T05:22:56.770Z,95889.53
2023-03-30T05:25:24.254Z,95901.09
2023-03-30T05:27:51.903Z,95909.38
2023-03-30T05:30:20.747Z,95908.53
2023-03-30T05:32:48.227Z,95901.34
2023-03-30T05:35:15.716Z,95904.34
2023-03-30T05:37:43.168Z,95901.56
2023-03-30T05:40:11.638Z,95901.63
2023-03-30T05:42:39.100Z,95897.59
2023-03-30T05:45:07.998Z,95886.09
2023-03-30T05:47:36.872Z,95893.38
2023-03-30T05:50:04.619Z,95890.44
2023-03-30T05:52:32.449Z,95882.47
2023-03-30T05:54:59.903Z,95886.56
2023-03-30T05:57:27.490Z,95894.16
2023-03-30T05:59:54.976Z,95893.44
2023-03-30T06:02:22.525Z,95900.06
2023-03-30T06:04:52.190Z,95897.53
2023-03-30T06:07:20.706Z,95900.09
2023-03-30T06:09:48.275Z,95892.28
2023-03-30T06:12:15.752Z,95883.75
2023-03-30T06:14:43.234Z,95878.72
2023-03-30T06:17:12.129Z,95878.84
2023-03-30T06:19:40.042Z,95893.16
2023-03-30T06:22:09.413Z,95889.22
2023-03-30T06:24:37.262Z,95879.72
2023-03-30T06:27:04.765Z,95870.38
2023-03-30T06:29:32.309Z,95862.06
2023-03-30T06:31:59.933Z,95863.88
2023-03-30T06:34:27.470Z,95864.41
2023-03-30T06:36:54.936Z,95868.66
2023-03-30T06:39:25.400Z,95870.63
2023-03-30T06:41:52.882Z,95872.91
2023-03-30T06:44:20.543Z,95875.78
2023-03-30T06:46:48.020Z,95890.22
2023-03-30T06:49:15.570Z,95879.72
2023-03-30T06:51:43.159Z,95871.97
2023-03-30T06:54:10.801Z,95864.84
2023-03-30T06:56:40.055Z,95864.63
2023-03-30T06:59:07.602Z,95853.44
2023-03-30T07:01:35.250Z,95860.16
2023-03-30T07:04:02.774Z,95845.38
2023-03-30T07:06:30.271Z,95858.97
2023-03-30T07:08:57.729Z,95853.59
2023-03-30T07:11:26.166Z,95853.59
2023-03-30T07:13:56.251Z,95853.06
2023-03-30T07:16:23.777Z,95849.44
2023-03-30T07:18:52.052Z,95842.56
2023-03-30T07:21:19.608Z,95847.53
2023-03-30T07:23:47.066Z,95846.25
2023-03-30T07:26:14.555Z,95847.41
2023-03-30T07:28:42.009Z,95836.69
2023-03-30T07:31:13.774Z,95836.97
2023-03-30T07:33:41.942Z,95836.59
2023-03-30T07:36:10.104Z,95831.19
2023-03-30T07:38:37.757Z,95839.81
2023-03-30T07:41:09.202Z,95833.88
2023-03-30T07:43:36.768Z,95830.38
2023-03-30T07:46:04.849Z,95833.22
2023-03-30T07:48:33.867Z,95836.34
2023-03-30T07:51:02.876Z,95842.00
2023-03-30T07:53:30.723Z,95850.75
2023-03-30T07:55:58.186Z,95856.75
2023-03-30T07:58:26.566Z,95853.91
2023-03-30T08:00:54.804Z,95853.78
2023-03-30T08:03:23.110Z,95847.66
2023-03-30T08:05:56.040Z,95847.06
2023-03-30T08:08:24.028Z,95859.94
2023-03-30T08:10:51.826Z,95842.09
2023-03-30T08:13:21.687Z,95846.81
2023-03-30T08:15:50.636Z,95843.69
2023-03-30T08:18:18.168Z,95832.84
2023-03-30T08:20:45.782Z,95841.28
2023-03-30T08:23:14.570Z,95845.28
2023-03-30T08:25:42.650Z,95858.88
2023-03-30T08:28:11.192Z,95864.28
2023-03-30T08:30:38.717Z,95859.44
2023-03-30T08:33:06.242Z,95877.72
2023-03-30T08:35:33.818Z,95887.47
2023-03-30T08:38:01.337Z,95881.44
2023-03-30T08:40:30.138Z,95865.81
2023-03-30T08:43:11.671Z,95854.28
2023-03-30T08:45:42.846Z,95853.91
2023-03-30T08:48:19.376Z,95839.28
2023-03-30T08:50:54.165Z,95840.44
2023-03-30T08:53:22.097Z,95855.53
2023-03-30T08:55:54.840Z,95848.56
2023-03-30T08:58:33.020Z,95845.75
2023-03-30T09:01:09.101Z,95826.91
2023-03-30T09:03:41.765Z,95840.69
2023-03-30T09:06:17.154Z,95827.03
2023-03-30T09:08:45.002Z,95815.78
2023-03-30T09:11:18.794Z,95817.84
2023-03-30T09:13:47.602Z,95816.75
2023-03-30T09:16:19.911Z,95818.44
2023-03-30T09:18:52.115Z,95812.84
2023-03-30T09:21:22.307Z,95808.06
2023-03-30T09:23:50.030Z,95830.44
2023-03-30T09:26:28.376Z,95841.06
2023-03-30T09:29:01.037Z,95836.75
2023-03-30T09:31:34.289Z,95847.72
2023-03-30T09:34:07.156Z,95855.41
2023-03-30T09:36:40.758Z,95857.41
2023-03-30T09:39:12.377Z,95864.75
2023-03-30T09:41:54.686Z,95871.25
2023-03-30T09:44:28.086Z,95894.78
2023-03-30T09:46:59.479Z,95932.41
2023-03-30T09:49:29.189Z,95933.59
2023-03-30T09:52:03.680Z,95919.81
2023-03-30T09:54:38.991Z,95894.22
2023-03-30T09:57:24.873Z,95876.97
2023-03-30T09:59:55.724Z,95876.66
2023-03-30T10:02:25.792Z,95880.66
2023-03-30T10:05:00.284Z,95880.09
2023-03-30T10:07:30.121Z,95866.53
2023-03-30T10:09:59.961Z,95867.13
2023-03-30T10:12:30.796Z,95872.22
2023-03-30T10:15:04.086Z,95876.84
2023-03-30T10:17:32.213Z,95884.78
2023-03-30T10:20:22.215Z,95877.81
2023-03-30T10:22:52.312Z,95877.44
2023-03-30T10:25:23.674Z,95880.34
2023-03-30T10:27:55.744Z,95877.44
2023-03-30T10:30:27.776Z,95880.00
2023-03-30T10:32:58.102Z,95886.97
2023-03-30T10:35:27.984Z,95876.22
2023-03-30T10:37:58.569Z,95878.75
2023-03-30T10:40:33.310Z,95884.06
2023-03-30T10:43:02.326Z,95880.63
2023-03-30T10:45:38.045Z,95878.34
2023-03-30T10:48:22.378Z,95863.63
2023-03-30T10:50:57.270Z,95864.84
2023-03-30T10:53:35.652Z,95862.91
2023-03-30T10:56:12.669Z,95861.59
2023-03-30T10:58:53.659Z,95861.25
2023-03-30T11:01:26.573Z,95852.22
2023-03-30T11:04:02.715Z,95850.69
2023-03-30T11:06:39.042Z,95835.88
2023-03-30T11:09:12.335Z,95811.75
2023-03-30T11:11:42.757Z,95818.31
2023-03-30T11:14:16.483Z,95834.91
2023-03-30T11:16:52.029Z,95856.94
2023-03-30T11:19:23.600Z,95862.53
2023-03-30T11:21:59.264Z,95847.59
2023-03-30T11:24:29.053Z,95840.72
2023-03-30T11:27:02.317Z,95834.31
2023-03-30T11:29:37.553Z,95842.41
2023-03-30T11:32:17.977Z,95848.44
2023-03-30T11:34:55.866Z,95861.63
2023-03-30T11:37:29.793Z,95861.09
2023-03-30T11:40:08.335Z,95861.56
2023-03-30T11:42:37.929Z,95854.13
2023-03-30T11:45:18.565Z,95845.81
2023-03-30T11:48:03.549Z,95851.28
2023-03-30T11:50:45.918Z,95880.41
2023-03-30T11:53:25.113Z,95891.94
2023-03-30T11:56:02.917Z,95884.19
2023-03-30T11:58:36.501Z,95849.19
2023-03-30T12:01:27.247Z,95836.94
2023-03-30T12:04:00.281Z,95837.88
2023-03-30T12:06:31.571Z,95842.56
2023-03-30T12:09:20.160Z,95826.59
2023-03-30T12:11:52.080Z,95834.34
2023-03-30T12:14:41.551Z,95842.69
2023-03-30T12:17:25.489Z,95843.09
2023-03-30T12:19:58.027Z,95852.94
2023-03-30T12:22:34.359Z,95846.56
2023-03-30T12:25:08.877Z,95840.47
2023-03-30T12:27:38.717Z,95838.38
2023-03-30T12:30:25.965Z,95819.19
2023-03-30T12:33:03.433Z,95816.28
2023-03-30T12:35:53.887Z,95796.38
2023-03-30T12:38:25.367Z,95806.28
2023-03-30T12:41:14.414Z,95810.38
2023-03-30T12:43:54.530Z,95818.69
2023-03-30T12:46:30.516Z,95817.94
2023-03-30T12:49:08.976Z,95811.16
2023-03-30T12:51:58.460Z,95823.06
2023-03-30T12:54:42.564Z,95815.00
2023-03-30T12:57:22.367Z,95812.56
2023-03-30T13:00:08.824Z,95818.41
2023-03-30T13:03:01.360Z,95814.44
2023-03-30T13:05:34.074Z,95810.88
2023-03-30T13:08:05.466Z,95817.31
2023-03-30T13:10:43.789Z,95812.69
2023-03-30T13:13:22.080Z,95809.13
2023-03-30T13:15:52.851Z,95805.84
2023-03-30T13:18:34.768Z,95807.47
2023-03-30T13:21:18.644Z,95796.88
2023-03-30T13:24:04.205Z,95805.47
2023-03-30T13:26:42.000Z,95798.94
2023-03-30T13:29:11.418Z,95790.59
2023-03-30T13:31:53.308Z,95795.78
2023-03-30T13:34:33.634Z,95795.16
2023-03-30T13:37:15.627Z,95793.94
2023-03-30T13:39:53.845Z,95793.09
2023-03-30T13:42:36.308Z,95779.34
2023-03-30T13:45:15.803Z,95774.34
2023-03-30T13:47:57.497Z,95757.66
2023-03-30T13:50:28.522Z,95749.38
2023-03-30T13:52:59.909Z,95746.13
2023-03-30T13:55:33.216Z,95753.53
2023-03-30T13:58:04.467Z,95749.41
2023-03-30T14:00:40.074Z,95745.91
2023-03-30T14:03:32.233Z,95739.75
2023-03-30T14:06:03.527Z,95759.13
2023-03-30T14:08:35.598Z,95742.03
2023-03-30T14:11:07.590Z,95755.25
2023-03-30T14:13:37.994Z,95749.06
2023-03-30T14:16:07.633Z,95745.34
2023-03-30T14:18:35.903Z,95737.84
2023-03-30T14:21:06.227Z,95739.06
2023-03-30T14:23:37.794Z,95720.81
2023-03-30T14:26:13.133Z,95725.50
2023-03-30T14:28:42.284Z,95716.06
2023-03-30T14:31:17.157Z,95711.66
2023-03-30T14:33:46.113Z,95705.66
2023-03-30T14:36:16.114Z,95704.22
2023-03-30T14:38:47.743Z,95709.56
2023-03-30T14:41:17.989Z,95720.88
2023-03-30T14:43:51.962Z,95721.09
2023-03-30T14:46:19.618Z,95701.75
2023-03-30T14:48:50.706Z,95707.34
2023-03-30T14:51:27.341Z,95707.72
2023-03-30T14:53:57.683Z,95692.81
2023-03-30T14:56:25.831Z,95702.44
2023-03-30T14:58:54.938Z,95703.38
2023-03-30T15:01:30.815Z,95706.72
2023-03-30T15:04:00.790Z,95681.59
2023-03-30T15:06:30.937Z,95678.75
2023-03-30T15:09:02.984Z,95672.53
2023-03-30T15:11:34.321Z,95673.13
2023-03-30T15:14:08.285Z,95679.53
2023-03-30T15:16:38.081Z,95676.47
2023-03-30T15:19:13.172Z,95677.25
2023-03-30T15:21:41.625Z,95688.31
2023-03-30T15:24:16.618Z,95678.31
2023-03-30T15:26:47.146Z,95691.03
2023-03-30T15:29:16.617Z,95690.06
2023-03-30T15:31:44.305Z,95700.94
2023-03-30T15:34:16.852Z,95704.22
2023-03-30T15:36:45.451Z,95692.59
2023-03-30T15:39:22.629Z,95700.31
2023-03-30T15:41:59.003Z,95690.84
2023-03-30T15:44:26.479Z,95693.31
2023-03-30T15:46:57.033Z,95679.38
2023-03-30T15:49:31.297Z,95674.16
2023-03-30T15:52:02.442Z,95683.00
2023-03-30T15:54:38.442Z,95685.03
2023-03-30T15:57:08.519Z,95692.06
2023-03-30T15:59:40.997Z,95703.94
2023-03-30T16:02:16.228Z,95689.22
2023-03-30T16:04:43.893Z,95690.81
2023-03-30T16:07:17.209Z,95711.91
2023-03-30T16:09:46.408Z,95705.19
2023-03-30T16:12:16.258Z,95718.09
2023-03-30T16:14:43.921Z,95703.25
2023-03-30T16:17:12.979Z,95736.41
2023-03-30T16:19:41.151Z,95742.75
2023-03-30T16:22:09.945Z,95736.81
2023-03-30T16:24:37.562Z,95750.72
2023-03-30T16:27:07.247Z,95744.66
2023-03-30T16:29:34.910Z,95737.16
2023-03-30T16:32:02.817Z,95744.06
2023-03-30T16:34:30.403Z,95742.28
2023-03-30T16:36:57.891Z,95734.28
2023-03-30T16:39:27.122Z,95723.06
2023-03-30T16:41:55.933Z,95722.16
2023-03-30T16:44:25.845Z,95717.31
2023-03-30T16:46:53.839Z,95719.00
2023-03-30T16:49:23.569Z,95722.63
2023-03-30T16:51:51.631Z,95718.50
2023-03-30T16:54:30.579Z,95707.53
2023-03-30T16:56:59.952Z,95703.75
2023-03-30T16:59:32.891Z,95711.50
2023-03-30T17:02:01.078Z,95705.28
2023-03-30T17:04:28.739Z,95682.59
2023-03-30T17:06:56.372Z,95693.72
2023-03-30T17:09:24.123Z,95683.94
2023-03-30T17:11:51.788Z,95685.28
2023-03-30T17:14:20.022Z,95692.34
2023-03-30T17:16:48.895Z,95684.84
2023-03-30T17:19:16.412Z,95679.22
2023-03-30T17:21:44.206Z,95687.50
2023-03-30T17:24:12.653Z,95684.78
2023-03-30T17:26:40.914Z,95688.59
2023-03-30T17:29:08.421Z,95694.84
2023-03-30T17:31:36.008Z,95704.25
2023-03-30T17:34:06.596Z,95712.13
2023-03-30T17:36:34.079Z,95712.66
2023-03-30T17:39:04.688Z,95722.78
2023-03-30T17:41:33.588Z,95721.47
2023-03-30T17:44:01.157Z,95729.56
2023-03-30T17:46:29.085Z,95735.16
2023-03-30T17:48:57.890Z,95752.56
2023-03-30T17:51:26.925Z,95757.81
2023-03-30T17:53:54.439Z,95761.53
2023-03-30T17:56:22.254Z,95764.19
2023-03-30T17:58:50.001Z,95774.06
2023-03-30T18:01:17.505Z,95778.19
2023-03-30T18:03:45.342Z,95778.59
2023-03-30T18:06:13.610Z,95797.59
2023-03-30T18:08:42.951Z,95797.31
2023-03-30T18:11:10.538Z,95806.00
2023-03-30T18:13:38.084Z,95820.38
2023-03-30T18:16:06.030Z,95805.63
2023-03-30T18:18:33.626Z,95810.56
2023-03-30T18:21:03.942Z,95806.25
2023-03-30T18:23:34.311Z,95814.13
2023-03-30T18:26:06.437Z,95818.56
2023-03-30T18:28:39.145Z,95825.34
2023-03-30T18:31:08.531Z,95818.59
2023-03-30T18:33:36.096Z,95820.25
2023-03-30T18:36:06.003Z,95817.66
2023-03-30T18:38:34.134Z,95820.59
2023-03-30T18:41:02.963Z,95828.47
2023-03-30T18:43:30.698Z,95826.50
2023-03-30T18:46:01.764Z,95836.91
2023-03-30T18:48:29.841Z,95843.84
2023-03-30T18:50:57.506Z,95842.50
2023-03-30T18:53:26.750Z,95846.81
2023-03-30T18:55:57.357Z,95842.34
2023-03-30T18:58:28.263Z,95841.38
2023-03-30T19:00:56.982Z,95850.16
2023-03-30T19:03:27.201Z,95847.44
2023-03-30T19:05:55.463Z,95854.16
2023-03-30T19:08:24.992Z,95856.41
2023-03-30T19:10:54.794Z,95861.25
2023-03-30T19:13:23.465Z,95860.25
2023-03-30T19:15:53.323Z,95865.25
2023-03-30T19:18:21.083Z,95861.94
2023-03-30T19:20:49.756Z,95864.16
2023-03-30T19:23:18.291Z,95867.84
2023-03-30T19:25:46.284Z,95875.44
2023-03-30T19:28:14.894Z,95871.03
2023-03-30T19:30:42.708Z,95866.38
2023-03-30T19:33:14.813Z,95873.00
2023-03-30T19:35:43.031Z,95868.94
2023-03-30T19:38:10.825Z,95879.19
2023-03-30T19:40:38.845Z,95878.31
2023-03-30T19:43:06.920Z,95881.25
2023-03-30T19:45:34.591Z,95880.50
2023-03-30T19:48:02.167Z,95876.53
2023-03-30T19:50:31.626Z,95882.31
2023-03-30T19:52:59.923Z,95877.22
2023-03-30T19:55:27.531Z,95887.25
2023-03-30T19:57:55.228Z,95884.59
2023-03-30T20:00:22.807Z,95884.72
2023-03-30T20:02:52.490Z,95887.81
2023-03-30T20:05:21.918Z,95886.75
2023-03-30T20:07:51.633Z,95881.66
2023-03-30T20:10:21.328Z,95889.72
2023-03-30T20:12:49.445Z,95883.00
2023-03-30T20:15:17.734Z,95880.03
2023-03-30T20:17:45.514Z,95883.19
2023-03-30T20:20:17.025Z,95878.53
2023-03-30T20:22:45.420Z,95890.69
2023-03-30T20:25:16.578Z,95898.06
2023-03-30T20:27:44.043Z,95897.28
2023-03-30T20:30:12.585Z,95889.44
2023-03-30T20:32:40.556Z,95889.97
2023-03-30T20:35:08.791Z,95875.06
2023-03-30T20:37:36.315Z,95888.72
2023-03-30T20:40:04.880Z,95875.88
2023-03-30T20:42:33.784Z,95878.41
2023-03-30T20:45:01.628Z,95886.50
2023-03-30T20:47:31.256Z,95871.13
2023-03-30T20:49:59.324Z,95873.53
2023-03-30T20:52:27.100Z,95874.81
2023-03-30T20:54:54.676Z,95875.38
2023-03-30T20:57:22.841Z,95875.06
2023-03-30T20:59:53.272Z,95877.72
2023-03-30T21:02:21.381Z,95874.53
2023-03-30T21:04:49.413Z,95876.91
2023-03-30T21:07:17.849Z,95874.53
2023-03-30T21:09:45.786Z,95883.63
2023-03-30T21:12:13.275Z,95875.84
2023-03-30T21:14:40.769Z,95867.41
2023-03-30T21:17:09.731Z,95870.88
2023-03-30T21:19:37.520Z,95873.97
2023-03-30T21:22:05.479Z,95868.31
2023-03-30T21:24:34.206Z,95854.69
2023-03-30T21:27:01.672Z,95863.81
2023-03-30T21:29:29.162Z,95857.00
2023-03-30T21:31:57.635Z,95861.22
2023-03-30T21:34:26.516Z,95858.44
2023-03-30T21:36:54.100Z,95860.47
2023-03-30T21:39:21.639Z,95861.69
2023-03-30T21:41:49.195Z,95853.00
2023-03-30T21:44:16.656Z,95855.00
2023-03-30T21:46:44.182Z,95847.81
2023-03-30T21:49:11.899Z,95852.25
2023-03-30T21:51:40.821Z,95846.47
2023-03-30T21:54:08.762Z,95848.81
2023-03-30T21:56:36.347Z,95838.78
2023-03-30T21:59:03.863Z,95841.16
2023-03-30T22:01:31.423Z,95834.22
2023-03-30T22:03:59.045Z,95833.53
2023-03-30T22:06:26.790Z,95838.53
2023-03-30T22:08:55.624Z,95831.59
2023-03-30T22:11:25.076Z,95823.00
2023-03-30T22:13:55.280Z,95818.16
2023-03-30T22:16:25.722Z,95824.56
2023-03-30T22:18:53.466Z,95813.94
2023-03-30T22:21:24.470Z,95817.34
2023-03-30T22:23:52.092Z,95813.38
2023-03-30T22:26:20.911Z,95812.50
2023-03-30T22:28:48.425Z,95812.53
2023-03-30T22:31:16.642Z,95805.38
2023-03-30T22:33:44.646Z,95802.09
2023-03-30T22:36:17.236Z,95795.13
2023-03-30T22:38:44.863Z,95797.25
2023-03-30T22:41:12.346Z,95790.78
2023-03-30T22:43:41.535Z,95789.13
2023-03-30T22:46:09.705Z,95783.38
2023-03-30T22:48:41.243Z,95780.75
2023-03-30T22:51:09.096Z,95779.84
2023-03-30T22:53:38.437Z,95777.66
2023-03-30T22:56:06.518Z,95777.06
2023-03-30T22:58:34.421Z,95773.22
2023-03-30T23:01:05.931Z,95781.69
2023-03-30T23:03:34.038Z,95778.28
2023-03-30T23:06:01.887Z,95782.16
2023-03-30T23:08:30.419Z,95776.88
2023-03-30T23:11:04.673Z,95770.63
2023-03-30T23:13:33.073Z,95768.91
2023-03-30T23:16:01.465Z,95767.59
2023-03-30T23:18:30.466Z,95781.91
2023-03-30T23:20:57.969Z,95772.59
2023-03-30T23:23:25.687Z,95772.09
2023-03-30T23:25:53.280Z,95768.38
2023-03-30T23:28:20.854Z,95766.09
2023-03-30T23:30:48.381Z,95761.84
2023-03-30T23:33:16.409Z,95758.09
2023-03-30T23:35:50.753Z,95755.31
2023-03-30T23:38:18.364Z,95746.63
2023-03-30T23:40:46.376Z,95744.22
2023-03-30T23:43:13.849Z,95741.84
2023-03-30T23:45:43.735Z,95742.56
2023-03-30T23:48:11.291Z,95742.50
2023-03-30T23:50:38.741Z,95727.16
2023-03-30T23:53:07.862Z,95709.88
2023-03-30T23:55:35.357Z,95701.66
2023-03-30T23:58:02.839Z,95702.97
